Hovedside
METAR-TAF:

METAR-TAF

Lufthavner :

Curaçao internasjonale lufthavn

Curaçao, De nederlandske Antillene

breddegrad: 12-12N, lengdegrad: 068-58W, høyde over havet: 9 m

Gjeldene værobservasjon

Denne rapporten ble laget for 58 minutter siden, klokken 20:00 UTC
Vind 8 kt fra Øst
Temperatur 29°C
Luftfuktighet 74%
Trykk 1010 hPa
Sikt 10 km eller mer
Få skyer i en høyde av 2000 ft

METAR: TNCC 252000Z 10008KT 9999 FEW020 29/24 Q1010 NOSIG

Tid: 16:58 (20:58 UTC)

Varsel

Denne rapporten ble laget for 15 timer og 58 minutter siden, klokken 05:00 UTC
Varsel gyldig fra 25. klokken 06 UTC til 26. klokken 06 UTC
Vind 11 kt fra Øst-sørøst
Sikt 10 km eller mer
Spredte skyer i en høyde av 1800 ft
Midlertidig
fra 25. klokken 09 UTC til 25. klokken 15 UTC
Brutte skyer i en høyde av 1500 ft

TAF: TNCC 250500Z 2506/2606 11011KT 9999 SCT018 TEMPO 2509/2515 BKN015

Værobservasjoner og værvarsel for over 4000 flyplasser (METAR- og TAF-rapporter).

Tilgjengelige stasjoner er representert av de røde og gule prikkene på kartet.

Hold musepekeren over prikken for å se navnet på stasjonen.

Klikk så for å se værobservasjoner og -varsler.

For å forandre kartet kan du klikke på den grønne knappen med svart kryss for å zoome inn, på den grønne knappen med strek for å zoome ut, eller på de grønne pilene for å se tilstøtende kart.


METAR-TAF: